Time;durP1;ratioP1;P1;durP2;ratioP2;P2;SDS_P1;SDS_P2;PMS_P1;PMS_P2;Temp;Humidity;BMP_temperature;BMP_pressure;BME280_temperature;BME280_humidity;BME280_pressure;Samples;Min_cycle;Max_cycle;Signal;HPM_P1;HPM_P2
2022/12/27 00:00:09;;;;;;;14.97;11.10;;;8.60;99.90;;;8.30;85.52;99830.31;5109491;28;20280;-70
2022/12/27 00:02:39;;;;;;;14.47;10.97;;;8.60;99.90;;;8.28;85.50;99835.44;5107683;28;20196;-68
2022/12/27 00:05:10;;;;;;;15.40;11.37;;;8.60;99.90;;;8.29;85.25;99826.88;5106432;28;20232;-71
2022/12/27 00:07:39;;;;;;;13.27;11.17;;;8.60;99.90;;;8.32;85.60;99828.56;5107125;28;20212;-68
2022/12/27 00:10:10;;;;;;;14.93;10.40;;;8.60;99.90;;;8.32;85.95;99823.44;5109013;28;20208;-70
2022/12/27 00:12:39;;;;;;;15.40;11.63;;;8.60;99.90;;;8.32;85.44;99826.00;5104472;28;20218;-71
2022/12/27 00:15:09;;;;;;;14.60;11.13;;;8.60;99.90;;;8.34;84.80;99824.28;5109036;28;20246;-70
2022/12/27 00:17:38;;;;;;;12.77;10.10;;;8.60;99.90;;;8.36;85.57;99827.72;5106469;28;20245;-70
2022/12/27 00:20:09;;;;;;;14.90;10.30;;;8.60;99.90;;;8.35;85.03;99831.13;5097306;28;20217;-70
2022/12/27 00:22:39;;;;;;;10.80;9.43;;;8.60;99.90;;;8.37;85.16;99829.41;5105337;28;20200;-72
2022/12/27 00:25:09;;;;;;;10.90;8.93;;;8.60;99.90;;;8.36;85.61;99815.72;5109233;28;20212;-70
2022/12/27 00:27:38;;;;;;;11.23;9.17;;;8.60;99.90;;;8.38;85.29;99820.88;5108342;28;21014;-70
2022/12/27 00:30:08;;;;;;;12.17;8.47;;;8.70;99.90;;;8.38;84.75;99820.88;5106474;28;20216;-68
2022/12/27 00:32:39;;;;;;;10.70;9.03;;;8.60;99.90;;;8.40;84.75;99816.59;5105991;28;20346;-71
2022/12/27 00:35:08;;;;;;;11.93;9.00;;;8.70;99.90;;;8.40;85.09;99816.59;5111848;28;20652;-69
2022/12/27 00:37:37;;;;;;;10.83;8.60;;;8.70;99.90;;;8.43;84.54;99816.53;5110225;28;20261;-70
2022/12/27 00:40:09;;;;;;;10.70;8.43;;;8.70;99.90;;;8.42;84.61;99814.84;5108831;28;20215;-70
2022/12/27 00:42:37;;;;;;;10.70;8.20;;;8.70;99.90;;;8.44;84.78;99821.69;5111455;28;20273;-69
2022/12/27 00:45:08;;;;;;;11.60;8.40;;;8.70;99.90;;;8.44;84.83;99819.13;5108123;28;20640;-70
2022/12/27 00:47:39;;;;;;;9.23;8.33;;;8.70;99.90;;;8.43;84.83;99819.13;5111209;28;20258;-68
2022/12/27 00:50:08;;;;;;;9.97;8.07;;;8.70;99.90;;;8.44;85.08;99833.69;5108336;28;20656;-68
2022/12/27 00:52:37;;;;;;;11.97;8.00;;;8.70;99.90;;;8.43;84.38;99830.25;5113078;28;20212;-70
2022/12/27 00:55:06;;;;;;;12.30;8.13;;;8.70;99.90;;;8.42;84.11;99831.09;5110129;28;20216;-71
2022/12/27 00:57:34;;;;;;;9.17;7.37;;;8.70;99.90;;;8.42;84.13;99828.53;5112380;28;20671;-71
2022/12/27 01:00:05;;;;;;;11.57;8.17;;;8.70;99.90;;;8.43;84.52;99844.78;5098250;28;20656;-69
2022/12/27 01:02:39;;;;;;;9.40;7.43;;;8.70;99.90;;;8.42;83.93;99828.53;5110113;28;20196;-72
2022/12/27 01:05:09;;;;;;;10.07;7.80;;;8.70;99.90;;;8.42;84.93;99835.38;5111658;28;20500;-69
2022/12/27 01:07:37;;;;;;;9.73;7.73;;;8.70;99.90;;;8.41;84.32;99826.84;5112481;28;20230;-70
2022/12/27 01:10:07;;;;;;;11.60;8.37;;;8.70;99.90;;;8.41;84.22;99829.41;5110127;28;20215;-70
2022/12/27 01:12:36;;;;;;;11.30;8.13;;;8.70;99.90;;;8.42;84.44;99823.41;5111490;28;20204;-69
2022/12/27 01:15:07;;;;;;;8.93;7.43;;;8.70;99.90;;;8.44;84.74;99828.53;5107444;28;20196;-69
2022/12/27 01:17:36;;;;;;;8.43;6.93;;;8.70;99.90;;;8.44;84.75;99836.25;5109501;27;20207;-70
2022/12/27 01:20:08;;;;;;;9.30;7.43;;;8.70;99.90;;;8.42;84.63;99825.97;5108601;28;20542;-69
2022/12/27 01:22:36;;;;;;;9.57;7.43;;;8.70;99.90;;;8.43;84.54;99830.25;5105333;28;20689;-70
2022/12/27 01:25:06;;;;;;;10.93;6.93;;;8.70;99.90;;;8.43;83.99;99821.69;5102599;28;20524;-69
2022/12/27 01:27:35;;;;;;;11.10;7.30;;;8.70;99.90;;;8.44;83.65;99828.53;5106941;28;20253;-70
2022/12/27 01:30:05;;;;;;;8.87;7.00;;;8.70;99.90;;;8.45;83.69;99822.53;5111307;28;20216;-69
2022/12/27 01:32:34;;;;;;;7.20;6.37;;;8.70;99.90;;;8.45;83.49;99827.66;5109646;28;20599;-69
2022/12/27 01:35:07;;;;;;;7.67;6.87;;;8.70;99.90;;;8.43;84.29;99819.13;5106858;28;20197;-69
2022/12/27 01:37:36;;;;;;;8.13;6.80;;;8.70;99.90;;;8.44;83.87;99815.69;5104953;28;20247;-70
2022/12/27 01:40:06;;;;;;;10.93;7.27;;;8.70;99.90;;;8.45;84.41;99817.41;5111939;28;20564;-70
2022/12/27 01:42:52;;;;;;;8.03;6.63;;;8.80;99.90;;;8.45;84.06;99827.66;5107596;28;20196;-70
2022/12/27 01:45:23;;;;;;;7.80;6.80;;;8.80;99.90;;;8.45;83.76;99832.81;5113306;28;20204;-70
2022/12/27 01:47:59;;;;;;;9.50;7.10;;;8.70;99.90;;;8.43;83.69;99837.09;5111880;28;20315;-71
2022/12/27 01:50:36;;;;;;;8.17;6.83;;;8.70;99.90;;;8.44;84.07;99823.41;5109655;27;20230;-69
2022/12/27 01:53:13;;;;;;;7.83;6.43;;;8.70;99.90;;;8.43;83.64;99824.25;5111541;28;20588;-71
2022/12/27 01:55:48;;;;;;;6.73;5.97;;;8.70;99.90;;;8.44;83.56;99820.84;5111391;28;20573;-70
2022/12/27 01:58:23;;;;;;;9.60;7.03;;;8.70;99.90;;;8.44;83.67;99825.97;5096106;28;20196;-70
2022/12/27 02:00:54;;;;;;;7.83;5.80;;;8.70;99.90;;;8.44;83.40;99825.97;5109585;28;20219;-71
2022/12/27 02:03:28;;;;;;;8.10;6.10;;;8.70;99.90;;;8.44;83.68;99820.84;5111737;28;20245;-71
2022/12/27 02:05:59;;;;;;;8.33;5.80;;;8.70;99.90;;;8.44;82.93;99818.28;5089747;28;20219;-70
2022/12/27 02:08:39;;;;;;;9.07;6.60;;;8.70;99.90;;;8.44;83.37;99813.13;5110179;28;20242;-71
2022/12/27 02:11:09;;;;;;;8.40;6.40;;;8.70;99.90;;;8.43;83.68;99817.41;5108491;28;20670;-70
2022/12/27 02:13:41;;;;;;;10.03;6.77;;;8.70;99.90;;;8.40;83.18;99809.72;5111373;28;20208;-71
2022/12/27 02:16:16;;;;;;;8.47;6.20;;;8.70;99.90;;;8.38;83.63;99808.88;5111314;28;20196;-68
2022/12/27 02:18:46;;;;;;;6.80;6.00;;;8.70;99.90;;;8.38;83.88;99815.72;5110544;28;20195;-68
2022/12/27 02:22:12;;;;;;;6.77;6.07;;;8.70;99.90;;;8.39;83.84;99818.28;5102305;28;20579;-69
2022/12/27 02:25:15;;;;;;;9.93;5.70;;;8.60;99.90;;;8.38;83.40;99810.59;5072968;28;20211;-70
2022/12/27 02:28:08;;;;;;;6.87;5.67;;;8.60;99.90;;;8.38;83.56;99810.59;5105796;28;20218;-69
2022/12/27 02:30:39;;;;;;;7.47;5.87;;;8.60;99.90;;;8.35;83.74;99811.44;5110437;28;20215;-70
2022/12/27 02:33:15;;;;;;;6.03;5.37;;;8.60;99.90;;;8.35;83.89;99815.72;5106723;28;20695;-70
2022/12/27 02:35:51;;;;;;;5.50;5.00;;;8.60;99.90;;;8.31;83.91;99814.03;5111474;28;20211;-69
2022/12/27 02:38:26;;;;;;;7.93;5.83;;;8.60;99.90;;;8.30;83.48;99812.34;5105029;28;20199;-71
2022/12/27 02:58:59;;;;;;;6.77;5.33;;;8.40;99.90;;;8.18;84.37;99836.38;5027291;28;20726;-69
2022/12/27 03:04:49;;;;;;;6.93;5.40;;;8.40;99.90;;;8.12;84.07;99834.66;5110818;28;20286;-71
2022/12/27 03:07:32;;;;;;;7.50;5.83;;;8.40;99.90;;;8.11;83.57;99832.97;5109986;28;20208;-70
2022/12/27 03:16:22;;;;;;;7.63;6.33;;;8.40;99.90;;;8.04;85.21;99846.69;5101580;28;20211;-70
2022/12/27 03:19:05;;;;;;;9.10;6.13;;;8.30;99.90;;;8.04;84.65;99872.34;5104479;28;20207;-71
2022/12/27 03:27:26;;;;;;;3.30;3.00;;;8.10;99.90;;;7.64;81.40;99908.38;5102338;28;20578;-70
2022/12/27 03:35:42;;;;;;;2.80;1.27;;;7.50;99.90;;;6.95;78.24;99951.09;5107715;28;20575;-72
2022/12/27 03:38:12;;;;;;;2.47;1.10;;;7.20;99.90;;;6.66;76.72;99969.78;5109852;28;20302;-69
2022/12/27 03:43:32;;;;;;;1.00;0.60;;;6.60;99.90;;;6.04;74.60;99978.06;5107055;28;20287;-70
2022/12/27 03:49:23;;;;;;;3.30;0.90;;;6.10;99.90;;;5.61;74.82;99998.19;5059032;28;20292;-70
2022/12/27 03:52:00;;;;;;;2.00;0.87;;;5.90;99.90;;;5.47;75.36;100005.75;5103635;28;20624;-69
2022/12/27 03:54:33;;;;;;;2.93;0.90;;;5.70;99.90;;;5.36;75.01;100007.34;5106401;28;20635;-69
2022/12/27 03:57:06;;;;;;;1.80;1.10;;;5.60;99.90;;;5.26;75.26;100008.97;5108196;28;20206;-69
2022/12/27 03:59:35;;;;;;;3.87;0.90;;;5.50;99.90;;;5.16;75.37;100006.34;5107191;28;20223;-71
2022/12/27 04:02:05;;;;;;;1.60;0.70;;;5.40;99.90;;;5.05;75.00;100012.19;5106508;28;20218;-69
2022/12/27 04:04:34;;;;;;;4.70;0.90;;;5.30;99.90;;;4.97;74.83;100024.03;5108576;28;20261;-69
2022/12/27 04:07:04;;;;;;;4.73;0.80;;;5.20;99.90;;;4.95;75.24;100035.03;5108548;28;20204;-70
2022/12/27 04:34:41;;;;;;;2.80;0.80;;;5.00;99.90;;;4.73;76.82;100064.56;5111993;28;20200;-70
2022/12/27 04:37:12;;;;;;;2.27;1.20;;;5.00;99.90;;;4.70;77.09;100060.28;5106390;28;20249;-71
2022/12/27 04:54:55;;;;;;;1.93;0.90;;;5.00;99.90;;;4.68;77.01;100074.72;5112134;28;20200;-70
2022/12/27 04:56:22;;;;;;;5.33;1.50;;;4.90;99.90;;;4.59;77.73;100097.56;5110311;28;20364;-69
2022/12/27 05:04:19;;;;;;;5.27;1.80;;;4.80;99.90;;;4.53;77.66;100102.59;5108638;28;20248;-69
2022/12/27 05:06:48;;;;;;;1.93;0.87;;;4.80;99.90;;;4.52;76.98;100111.91;5102442;28;20718;-70
2022/12/27 05:14:50;;;;;;;4.73;0.97;;;4.80;99.90;;;4.44;77.82;100133.91;5106015;28;20196;-70
2022/12/27 05:17:18;;;;;;;6.20;1.27;;;4.70;99.90;;;4.43;77.74;100133.91;5110874;28;20206;-69
2022/12/27 05:19:47;;;;;;;4.03;1.00;;;4.70;99.90;;;4.41;78.28;100144.06;5109545;28;20208;-68
2022/12/27 05:27:48;;;;;;;6.77;1.33;;;4.60;99.90;;;4.27;78.35;100159.19;5109353;28;20200;-70
2022/12/27 05:30:17;;;;;;;2.97;1.40;;;4.50;99.90;;;4.22;78.97;100155.69;5106893;28;20221;-68
2022/12/27 05:32:45;;;;;;;4.27;1.20;;;4.50;99.90;;;4.17;79.26;100159.88;5109101;28;20331;-69
2022/12/27 05:35:14;;;;;;;3.70;1.17;;;4.40;99.90;;;4.11;78.97;100162.31;5109250;28;20211;-68
2022/12/27 05:37:42;;;;;;;3.30;1.20;;;4.40;99.90;;;4.07;79.39;100175.84;5108972;28;20240;-69
2022/12/27 05:40:12;;;;;;;3.90;2.07;;;4.40;99.90;;;4.02;79.60;100180.88;5103493;28;20714;-70
2022/12/27 05:42:40;;;;;;;5.70;1.30;;;4.30;99.90;;;4.01;79.16;100189.34;5104611;28;20239;-68
2022/12/27 05:45:11;;;;;;;4.23;0.93;;;4.20;99.90;;;3.97;79.18;100189.25;5110207;28;20696;-70
2022/12/27 05:47:39;;;;;;;9.80;1.83;;;4.20;99.90;;;3.95;79.49;100201.16;5110832;28;20200;-70
2022/12/27 05:50:09;;;;;;;8.60;1.57;;;4.20;99.90;;;3.91;78.92;100196.81;5108745;28;20636;-67
2022/12/27 05:52:38;;;;;;;6.10;2.03;;;4.10;99.90;;;3.90;79.78;100198.50;5103891;28;20208;-69
2022/12/27 05:55:09;;;;;;;4.73;1.63;;;4.10;99.90;;;3.91;79.13;100199.38;5110763;28;20243;-69
2022/12/27 05:57:38;;;;;;;6.23;1.10;;;4.10;99.90;;;3.92;79.57;100218.94;5108012;28;20251;-69
2022/12/27 06:00:09;;;;;;;7.07;1.23;;;4.10;99.90;;;3.92;79.51;100224.88;5105022;28;20231;-69
2022/12/27 06:02:39;;;;;;;3.70;1.10;;;4.20;99.90;;;3.96;79.46;100230.91;5103772;28;20196;-69
2022/12/27 06:05:09;;;;;;;4.90;1.47;;;4.20;99.90;;;3.96;79.57;100236.00;5109189;28;20682;-69
2022/12/27 06:07:39;;;;;;;6.10;1.50;;;4.20;99.90;;;3.94;79.22;100235.09;5109214;28;20207;-70
2022/12/27 06:10:09;;;;;;;6.37;1.50;;;4.10;99.90;;;3.92;79.14;100229.13;5105602;28;20227;-69
2022/12/27 06:12:38;;;;;;;6.93;1.50;;;4.10;99.90;;;3.92;78.99;100236.78;5109354;28;20653;-70
2022/12/27 06:15:07;;;;;;;6.80;2.03;;;4.10;99.90;;;3.87;79.39;100236.69;5106053;28;20212;-69
2022/12/27 06:17:37;;;;;;;5.63;1.70;;;4.00;99.90;;;3.82;78.73;100231.50;5105968;28;20200;-68
2022/12/27 06:20:07;;;;;;;5.33;2.17;;;4.00;99.90;;;3.79;78.72;100240.75;5101628;28;20204;-70
2022/12/27 06:22:35;;;;;;;5.43;2.23;;;4.00;99.90;;;3.74;79.50;100237.28;5109708;28;20261;-70
2022/12/27 06:25:05;;;;;;;5.97;1.80;;;3.90;99.90;;;3.67;79.11;100232.91;5110527;27;20651;-68
2022/12/27 06:27:39;;;;;;;7.97;1.70;;;3.90;99.90;;;3.62;78.65;100236.22;5105635;28;20196;-70
2022/12/27 06:30:10;;;;;;;6.30;1.93;;;3.90;99.90;;;3.57;78.55;100244.59;5108291;28;20257;-69
2022/12/27 06:32:40;;;;;;;10.67;1.77;;;3.80;99.90;;;3.54;79.18;100253.03;5105697;28;20620;-69
2022/12/27 06:35:10;;;;;;;6.57;1.70;;;3.80;99.90;;;3.51;78.94;100258.06;5102444;28;20243;-70
2022/12/27 06:37:38;;;;;;;10.97;1.63;;;3.80;99.90;;;3.49;78.26;100258.84;5107615;28;20314;-69
2022/12/27 06:40:08;;;;;;;6.50;1.67;;;3.70;99.90;;;3.48;79.47;100267.34;5108335;28;20548;-68
2022/12/27 06:42:37;;;;;;;4.97;1.70;;;3.80;99.90;;;3.49;78.71;100277.53;5092585;28;20259;-72
2022/12/27 06:45:08;;;;;;;8.17;1.70;;;3.70;99.90;;;3.46;78.21;100274.97;5110699;28;20238;-68
2022/12/27 06:47:36;;;;;;;8.90;1.83;;;3.70;99.90;;;3.45;78.96;100285.97;5114961;28;20253;-69
2022/12/27 06:50:07;;;;;;;4.30;1.70;;;3.70;99.90;;;3.44;78.65;100280.84;5110707;28;20242;-69
2022/12/27 06:52:36;;;;;;;4.77;1.60;;;3.70;99.90;;;3.38;78.48;100282.41;5106085;28;20200;-70
2022/12/27 06:55:05;;;;;;;9.87;1.83;;;3.70;99.90;;;3.39;78.67;100288.41;5114956;28;20196;-75
2022/12/27 06:57:33;;;;;;;4.50;1.70;;;3.70;99.90;;;3.38;78.78;100291.75;5103413;28;20200;-72
2022/12/27 07:00:03;;;;;;;6.23;1.83;;;3.60;99.90;;;3.35;78.75;100297.66;5109106;28;20711;-70
2022/12/27 07:02:31;;;;;;;9.47;2.87;;;3.60;99.90;;;3.37;78.14;100315.50;5113766;28;20200;-67
2022/12/27 07:05:00;;;;;;;6.57;2.33;;;3.60;99.90;;;3.36;79.22;100319.75;5112737;28;20543;-72
2022/12/27 07:07:30;;;;;;;5.03;1.70;;;3.60;99.90;;;3.36;78.01;100326.53;5107010;28;20276;-68
2022/12/27 07:09:59;;;;;;;7.13;2.30;;;3.60;99.90;;;3.35;79.04;100322.25;5109480;28;20274;-73
2022/12/27 07:12:27;;;;;;;8.60;2.23;;;3.60;99.90;;;3.35;78.98;100338.41;5110160;28;20200;-68
2022/12/27 07:15:04;;;;;;;5.20;1.90;;;3.60;99.90;;;3.35;78.02;100338.41;5110742;28;20584;-71
2022/12/27 07:17:35;;;;;;;9.10;2.07;;;3.60;99.90;;;3.34;78.69;100330.72;5106209;28;20211;-69
2022/12/27 07:20:04;;;;;;;7.43;2.03;;;3.60;99.90;;;3.30;78.86;100334.88;5101448;27;20231;-68
2022/12/27 07:22:34;;;;;;;5.90;2.20;;;3.60;99.90;;;3.31;78.81;100349.31;5109100;28;20641;-71
2022/12/27 07:25:03;;;;;;;9.40;1.87;;;3.60;99.90;;;3.30;79.15;100345.06;5107639;28;20318;-69
2022/12/27 07:27:33;;;;;;;12.90;2.50;;;3.60;99.90;;;3.31;79.04;100344.22;5106951;28;20203;-69
2022/12/27 07:30:05;;;;;;;7.33;1.90;;;3.60;99.90;;;3.34;78.65;100346.00;5108238;28;20281;-67
2022/12/27 07:32:33;;;;;;;5.70;2.17;;;3.60;99.90;;;3.39;79.08;100355.47;5104713;28;20284;-70
2022/12/27 07:35:02;;;;;;;8.93;2.80;;;3.70;99.90;;;3.45;79.58;100366.63;5113571;28;20242;-70
2022/12/27 07:37:31;;;;;;;9.17;2.83;;;3.70;99.90;;;3.50;79.36;100363.34;5109558;28;20318;-70
2022/12/27 07:40:00;;;;;;;8.20;2.33;;;3.80;99.90;;;3.56;79.00;100366.00;5109846;28;20219;-68
2022/12/27 07:42:29;;;;;;;6.47;2.07;;;3.90;99.90;;;3.60;78.17;100367.81;5109547;28;20229;-66
2022/12/27 07:44:57;;;;;;;8.20;2.70;;;3.90;99.90;;;3.65;78.46;100377.25;5108267;28;20242;-73
2022/12/27 07:47:27;;;;;;;8.07;2.13;;;3.90;99.90;;;3.74;78.94;100377.44;5111645;28;20261;-68
2022/12/27 07:49:55;;;;;;;11.33;2.33;;;4.00;99.90;;;3.84;77.82;100382.78;5112611;28;20249;-70
2022/12/27 07:52:26;;;;;;;7.73;2.10;;;4.10;99.90;;;3.95;78.13;100379.59;5118668;27;20208;-68
2022/12/27 07:54:54;;;;;;;10.57;2.53;;;4.20;99.90;;;4.01;77.99;100382.25;5116121;28;20604;-67
2022/12/27 07:57:24;;;;;;;4.07;2.00;;;4.30;99.90;;;4.11;77.86;100389.25;5115740;28;20195;-68
2022/12/27 07:59:52;;;;;;;8.40;2.20;;;4.40;99.90;;;4.25;77.63;100389.53;5114437;28;20219;-69
2022/12/27 08:02:21;;;;;;;10.70;2.60;;;4.50;99.90;;;4.32;77.04;100384.59;5111737;28;20698;-68
2022/12/27 08:04:49;;;;;;;7.33;2.30;;;4.60;99.90;;;4.39;76.29;100395.78;5113490;28;20261;-68
2022/12/27 08:07:20;;;;;;;9.43;2.60;;;4.60;99.90;;;4.39;76.26;100402.56;5108620;28;20215;-69
2022/12/27 08:09:49;;;;;;;5.97;2.00;;;4.70;99.90;;;4.37;76.50;100407.63;5113369;28;20211;-69
2022/12/27 08:12:17;;;;;;;10.63;2.50;;;4.70;99.90;;;4.38;76.21;100409.34;5111516;28;20204;-69
2022/12/27 08:14:47;;;;;;;7.03;2.17;;;4.70;99.90;;;4.38;76.20;100419.53;5107961;28;20204;-67
2022/12/27 08:17:20;;;;;;;5.13;2.37;;;4.60;99.90;;;4.34;76.26;100423.75;5110466;28;20701;-66
2022/12/27 08:19:51;;;;;;;10.33;2.83;;;4.60;99.90;;;4.35;76.68;100425.47;5108371;28;20524;-67
2022/12/27 08:22:21;;;;;;;10.17;2.40;;;4.60;99.90;;;4.41;76.81;100434.06;5106856;28;20204;-69
2022/12/27 08:24:50;;;;;;;11.40;2.70;;;4.70;99.90;;;4.45;76.20;100430.72;5112086;28;20196;-70
2022/12/27 08:27:22;;;;;;;8.13;2.60;;;4.70;99.90;;;4.48;76.24;100441.84;5109861;28;20284;-68
2022/12/27 08:29:51;;;;;;;10.13;3.13;;;4.80;99.90;;;4.48;75.94;100441.00;5110344;28;20325;-68
2022/12/27 08:32:20;;;;;;;7.67;2.53;;;4.80;99.90;;;4.46;76.01;100433.31;5113623;28;20260;-67
2022/12/27 08:34:48;;;;;;;9.17;2.70;;;4.80;99.90;;;4.49;76.32;100437.59;5114039;28;20203;-69
2022/12/27 08:37:17;;;;;;;8.60;2.33;;;4.80;99.90;;;4.53;75.89;100426.66;5111638;28;20261;-69
2022/12/27 08:39:45;;;;;;;9.70;2.83;;;4.80;99.90;;;4.53;76.07;100429.22;5116062;28;20216;-68
2022/12/27 08:42:14;;;;;;;7.73;2.47;;;4.80;99.90;;;4.39;76.30;100416.19;5111447;28;20230;-68
2022/12/27 08:44:42;;;;;;;6.87;2.63;;;4.90;99.90;;;4.55;76.66;100450.50;5108784;28;20292;-68
2022/12/27 08:47:12;;;;;;;6.70;2.67;;;4.90;99.90;;;4.54;76.20;100446.22;5119564;28;20578;-68
2022/12/27 08:49:41;;;;;;;11.80;2.93;;;4.90;99.90;;;4.53;76.66;100444.53;5121419;28;20212;-68
2022/12/27 08:52:09;;;;;;;7.17;2.63;;;4.80;99.90;;;4.53;76.63;100454.72;5121356;28;20276;-70
2022/12/27 08:54:37;;;;;;;7.17;2.13;;;4.90;99.90;;;4.56;76.65;100454.75;5131026;28;20192;-70
2022/12/27 08:57:06;;;;;;;8.37;2.43;;;4.90;99.90;;;4.57;76.15;100447.16;5130640;28;20184;-71
2022/12/27 08:59:35;;;;;;;7.47;2.87;;;4.90;99.90;;;4.61;76.05;100458.28;5127628;28;20304;-70
2022/12/27 09:02:03;;;;;;;8.65;2.40;;;4.90;99.90;;;4.65;75.58;100462.59;5117585;28;20442;-72
2022/12/27 09:04:33;;;;;;;9.30;2.50;;;5.00;99.90;;;4.67;76.25;100457.53;5112644;27;20661;-69
2022/12/27 09:07:03;;;;;;;6.67;2.33;;;5.00;99.90;;;4.70;75.40;100473.75;5111677;27;20208;-70
2022/12/27 09:09:32;;;;;;;6.13;2.40;;;5.00;99.90;;;4.73;75.64;100473.81;5109468;27;20670;-68
2022/12/27 09:12:00;;;;;;;8.00;2.40;;;5.10;99.90;;;4.73;75.80;100468.72;5109698;28;20231;-71
2022/12/27 09:14:35;;;;;;;7.67;3.17;;;5.10;99.90;;;4.77;75.54;100475.59;5104578;28;20563;-68
2022/12/27 09:17:05;;;;;;;9.77;2.60;;;5.10;99.90;;;4.77;75.48;100470.47;5110145;28;20234;-67
2022/12/27 09:19:34;;;;;;;6.90;2.63;;;5.10;99.90;;;4.77;75.23;100473.03;5105126;28;20298;-70
2022/12/27 09:22:03;;;;;;;10.03;2.63;;;5.10;99.90;;;4.74;75.85;100475.53;5104401;28;20222;-69
2022/12/27 09:24:31;;;;;;;10.47;2.90;;;5.10;99.90;;;4.74;75.21;100474.66;5105090;28;20253;-68
2022/12/27 09:27:00;;;;;;;6.60;2.53;;;5.10;99.90;;;4.75;75.19;100479.81;5100459;28;20200;-69
2022/12/27 09:29:29;;;;;;;6.97;2.30;;;5.10;99.90;;;4.72;75.21;100472.09;5115579;27;20226;-71
2022/12/27 09:31:57;;;;;;;9.20;3.10;;;5.00;99.90;;;4.70;75.52;100478.84;5114526;28;20262;-69
2022/12/27 09:34:25;;;;;;;7.10;2.60;;;5.00;99.90;;;4.68;75.44;100467.78;5115595;27;20196;-69
2022/12/27 09:36:55;;;;;;;10.00;2.63;;;5.00;99.90;;;4.70;75.58;100483.09;5120853;28;20188;-69
2022/12/27 09:39:24;;;;;;;5.60;2.73;;;5.00;99.90;;;4.73;75.70;100483.16;5112565;28;20196;-68
2022/12/27 09:42:01;;;;;;;7.43;2.70;;;5.00;99.90;;;4.78;75.65;100481.56;5107092;28;20200;-68
2022/12/27 09:44:57;;;;;;;6.97;2.80;;;5.10;99.90;;;4.77;74.95;100483.25;5108637;28;20330;-69
2022/12/27 09:47:31;;;;;;;6.07;2.23;;;5.10;99.90;;;4.80;74.56;100492.66;5103827;28;20199;-67
2022/12/27 09:50:04;;;;;;;7.17;2.30;;;5.10;99.90;;;4.81;75.12;100485.03;5116607;27;20622;-69
2022/12/27 09:52:40;;;;;;;4.73;2.57;;;5.20;99.90;;;4.82;75.13;100488.44;5110156;28;20208;-72
2022/12/27 09:55:16;;;;;;;9.77;2.50;;;5.20;99.90;;;4.84;75.04;100486.78;5117674;28;20253;-69
2022/12/27 09:57:46;;;;;;;10.23;2.70;;;5.20;99.90;;;4.84;75.02;100492.75;5104725;28;20200;-72
2022/12/27 10:00:18;;;;;;;6.17;2.73;;;5.20;99.90;;;4.86;75.60;100490.25;5094330;28;20220;-72
2022/12/27 10:03:06;;;;;;;6.10;2.57;;;5.20;99.90;;;4.87;75.50;100497.06;5108753;28;20219;-72
2022/12/27 10:05:38;;;;;;;9.63;2.93;;;5.20;99.90;;;4.91;75.16;100501.38;5110937;28;20637;-72
2022/12/27 10:08:29;;;;;;;6.70;2.50;;;5.20;99.90;;;4.93;74.50;100501.41;5114321;27;20204;-71
2022/12/27 10:11:34;;;;;;;5.60;2.87;;;5.20;99.90;;;4.89;74.33;100504.72;5109418;28;20253;-73
2022/12/27 10:14:05;;;;;;;8.53;2.57;;;5.20;99.90;;;4.85;74.84;100499.56;5116123;28;20204;-74
2022/12/27 10:16:45;;;;;;;8.87;3.93;;;5.20;99.90;;;4.85;74.69;100507.22;5114869;28;20203;-70
2022/12/27 10:19:29;;;;;;;5.27;2.40;;;5.20;99.90;;;4.87;74.69;100512.38;5109113;28;20291;-69
2022/12/27 10:22:12;;;;;;;9.03;3.30;;;5.20;99.90;;;4.86;74.22;100505.56;5111349;28;20264;-71
2022/12/27 10:24:49;;;;;;;10.00;3.10;;;5.20;99.90;;;4.88;74.50;100513.22;5105270;27;20200;-70
2022/12/27 10:27:23;;;;;;;10.70;3.67;;;5.20;99.90;;;4.88;74.65;100513.22;5107333;28;20897;-69
2022/12/27 10:29:54;;;;;;;7.67;3.07;;;5.20;99.90;;;4.88;74.19;100500.47;5103143;28;20188;-71
2022/12/27 10:32:23;;;;;;;6.90;3.23;;;5.20;99.90;;;4.93;74.11;100501.41;5109321;28;20598;-70
2022/12/27 10:35:00;;;;;;;8.97;3.17;;;5.30;99.90;;;5.05;73.70;100511.88;5109548;27;20230;-70
2022/12/27 10:37:30;;;;;;;9.30;3.43;;;5.40;99.90;;;5.14;73.34;100509.47;5108418;28;20643;-70
2022/12/27 10:40:11;;;;;;;8.43;3.53;;;5.40;99.90;;;5.16;73.25;100515.47;5108618;28;20227;-72
2022/12/27 10:42:45;;;;;;;5.27;2.77;;;5.50;99.90;;;5.22;72.44;100517.25;5106038;28;20657;-71
2022/12/27 10:45:35;;;;;;;8.00;3.20;;;5.50;99.90;;;5.35;72.40;100518.34;5108587;28;20214;-72
2022/12/27 10:48:20;;;;;;;9.47;3.20;;;5.60;99.90;;;5.43;71.97;100524.44;5109985;28;20290;-72
2022/12/27 10:50:54;;;;;;;8.90;4.40;;;5.70;99.90;;;5.45;72.30;100513.44;5100282;28;20204;-70
2022/12/27 10:53:39;;;;;;;10.57;3.40;;;5.80;99.90;;;5.49;71.86;100516.88;5110126;28;20192;-71
2022/12/27 10:56:14;;;;;;;6.77;3.83;;;5.80;99.90;;;5.57;72.43;100518.72;5109909;28;20264;-70
2022/12/27 10:58:45;;;;;;;10.77;3.43;;;5.90;99.90;;;5.61;71.72;100509.41;5096968;28;20240;-71
2022/12/27 11:01:24;;;;;;;7.63;3.67;;;5.90;99.90;;;5.57;70.64;100507.66;5107243;28;20262;-70
2022/12/27 11:04:14;;;;;;;6.10;3.70;;;5.90;99.90;;;5.52;71.41;100510.13;5105065;28;20226;-70
2022/12/27 11:06:51;;;;;;;5.73;3.33;;;5.80;99.90;;;5.53;71.62;100511.84;5110154;28;20208;-71
2022/12/27 11:09:30;;;;;;;7.80;3.83;;;5.90;99.90;;;5.54;71.11;100507.59;5110060;28;20204;-71
2022/12/27 11:12:22;;;;;;;9.17;3.00;;;5.80;99.90;;;5.62;70.32;100500.91;5095698;28;20220;-71
2022/12/27 11:14:57;;;;;;;6.70;2.83;;;5.90;99.90;;;5.71;70.33;100501.06;5109158;28;20204;-70
2022/12/27 11:17:35;;;;;;;4.90;3.00;;;6.00;99.90;;;5.73;70.13;100498.50;5093403;27;20217;-68
2022/12/27 11:20:20;;;;;;;6.03;2.60;;;6.00;99.90;;;5.76;68.49;100501.13;5109749;28;20471;-71
2022/12/27 11:22:53;;;;;;;6.20;2.33;;;6.00;99.90;;;5.73;67.81;100509.59;5109219;28;20199;-68
2022/12/27 11:25:23;;;;;;;7.50;2.40;;;6.00;99.90;;;5.67;67.66;100504.41;5109792;28;20202;-72
2022/12/27 11:27:57;;;;;;;7.20;2.40;;;5.90;99.90;;;5.60;66.94;100523.03;5108940;28;20744;-71
2022/12/27 11:30:31;;;;;;;8.87;3.43;;;5.90;99.90;;;5.53;67.56;100514.41;5110095;28;20280;-70
2022/12/27 11:33:05;;;;;;;7.23;2.80;;;5.90;99.90;;;5.50;67.83;100513.50;5108985;28;20239;-72
2022/12/27 11:35:46;;;;;;;7.37;3.50;;;5.80;99.90;;;5.73;67.56;100519.81;5107285;28;20203;-70
2022/12/27 11:38:24;;;;;;;7.27;3.33;;;6.00;99.90;;;5.81;67.83;100525.91;5107422;28;20320;-70
2022/12/27 11:41:01;;;;;;;6.23;2.60;;;6.10;99.90;;;5.98;66.39;100533.03;5104353;28;20195;-72
2022/12/27 11:43:35;;;;;;;5.17;2.77;;;6.20;99.90;;;6.22;65.91;100530.84;5109545;28;20241;-73
2022/12/27 11:46:09;;;;;;;5.13;2.60;;;6.50;99.90;;;6.52;64.95;100539.75;5108105;28;20204;-72
2022/12/27 11:48:44;;;;;;;3.97;2.57;;;6.70;99.90;;;6.62;63.55;100527.91;5108002;28;20240;-69
2022/12/27 11:51:46;;;;;;;8.47;2.50;;;6.80;99.90;;;6.54;62.83;100553.41;5109484;28;20203;-72
2022/12/27 11:54:36;;;;;;;4.33;2.20;;;6.70;99.90;;;6.46;62.76;100539.66;5106707;28;20253;-71
2022/12/27 11:57:19;;;;;;;6.67;2.50;;;6.70;99.90;;;6.36;62.80;100553.16;5103974;28;20208;-73
2022/12/27 12:00:00;;;;;;;5.93;2.20;;;6.60;99.90;;;6.19;62.62;100555.50;5109409;28;20255;-72
2022/12/27 12:02:44;;;;;;;4.90;2.47;;;6.40;99.90;;;5.97;63.66;100550.06;5107941;28;20684;-71
2022/12/27 12:05:54;;;;;;;6.80;2.43;;;6.30;99.90;;;5.75;64.17;100564.19;5107043;28;20227;-70
2022/12/27 12:08:59;;;;;;;5.77;2.03;;;6.10;99.90;;;5.60;64.50;100563.94;5105033;28;20204;-72
2022/12/27 12:11:50;;;;;;;3.97;2.20;;;5.90;99.90;;;5.48;65.22;100579.03;5107474;28;20219;-72
2022/12/27 12:14:54;;;;;;;8.80;2.30;;;5.80;99.90;;;5.36;65.93;100568.59;5108767;28;20200;-70
2022/12/27 12:17:55;;;;;;;7.63;2.70;;;5.70;99.90;;;5.25;66.60;100574.38;5101894;28;20204;-71
2022/12/27 12:20:46;;;;;;;5.93;2.43;;;5.60;99.90;;;5.18;66.74;100580.19;5108645;28;20250;-69
2022/12/27 12:23:37;;;;;;;3.87;2.30;;;5.50;99.90;;;5.16;67.37;100581.88;5102886;28;20200;-70
2022/12/27 12:26:16;;;;;;;9.10;2.50;;;5.40;99.90;;;5.09;67.20;100574.94;5107681;28;20200;-71
2022/12/27 12:29:25;;;;;;;6.93;2.40;;;5.40;99.90;;;5.02;67.02;100590.97;5101607;28;20219;-72
2022/12/27 12:32:33;;;;;;;2.97;2.40;;;5.30;99.90;;;4.97;67.42;100590.00;5101451;28;20306;-71